CDT,Max TemperatureF,Mean TemperatureF,Min TemperatureF,Max Dew PointF,MeanDew PointF,Min DewpointF,Max Humidity, Mean Humidity, Min Humidity, Max Sea Level PressureIn, Mean Sea Level PressureIn, Min Sea Level PressureIn, Max VisibilityMiles, Mean VisibilityMiles, Min VisibilityMiles, Max Wind SpeedMPH, Mean Wind SpeedMPH, Max Gust SpeedMPH,PrecipitationIn, CloudCover, Events, WindDirDegrees
2010-10-1,81,60,39,48,44,37,93,62,30,30.27,30.16,30.06,10,10,9,21,8,28,0.00,0,,308
2010-10-2,61,47,32,45,36,30,89,61,32,30.47,30.40,30.30,10,10,10,14,6,18,0.00,0,,31
2010-10-3,65,47,28,37,31,27,92,60,28,30.42,30.34,30.23,10,10,10,21,9,26,0.00,0,,165
2010-10-4,71,55,39,44,38,33,85,60,35,30.25,30.19,30.11,10,10,10,25,12,31,0.00,0,,157
2010-10-5,79,62,45,47,43,37,71,52,32,30.18,30.15,30.11,10,10,10,22,10,28,0.00,0,,173
2010-10-6,74,58,42,53,46,39,89,62,35,30.29,30.24,30.17,10,10,10,18,7,24,0.00,0,,356
2010-10-7,79,58,36,46,40,35,92,59,25,30.29,30.19,30.06,10,10,10,15,4,20,0.00,0,,172
2010-10-8,90,67,44,53,46,41,93,56,19,30.05,29.93,29.83,10,10,10,24,7,31,0.00,0,,175
2010-10-9,73,59,45,53,48,42,89,65,41,29.99,29.95,29.90,10,10,8,18,6,25,0.01,1,Rain,253
2010-10-10,67,56,44,55,49,43,100,74,48,29.97,29.92,29.87,10,10,8,16,3,20,0.11,6,Rain-Thunderstorm,135
2010-10-11,69,59,48,55,52,47,100,78,56,29.98,29.93,29.88,10,10,5,15,4,18,0.08,5,Rain-Thunderstorm,266
2010-10-12,66,52,38,51,45,37,93,68,42,30.35,30.18,29.97,10,10,10,24,12,35,0.00,0,,333
2010-10-13,66,50,33,38,33,25,96,59,22,30.47,30.38,30.28,10,10,8,16,6,21,0.00,0,,306
2010-10-14,77,55,33,42,33,27,89,53,16,30.30,30.17,30.08,10,10,10,20,6,30,0.00,0,,313
2010-10-15,79,55,30,40,35,28,92,57,21,30.17,30.05,29.92,10,10,10,22,8,29,0.00,0,,179
2010-10-16,65,50,34,43,34,26,89,58,27,30.23,30.11,29.91,10,10,10,25,9,32,0.00,0,,348
2010-10-17,63,45,27,37,30,25,89,59,29,30.23,30.14,30.01,10,10,10,15,4,20,0.00,0,,129
2010-10-18,63,46,29,35,32,26,85,60,34,30.17,30.12,30.05,10,10,10,15,5,26,0.00,0,,324
2010-10-19,71,48,24,40,29,22,88,58,28,30.14,30.05,29.94,10,10,10,20,6,24,0.00,0,,287
2010-10-20,74,51,28,35,31,26,89,56,22,30.07,30.02,29.96,10,10,10,24,6,30,0.00,0,,318
2010-10-21,69,49,28,36,30,26,92,58,24,30.15,30.04,29.93,10,10,10,14,4,20,0.00,0,,156
2010-10-22,69,52,34,54,43,31,89,73,57,29.93,29.84,29.77,10,10,4,21,3,29,0.23,2,Rain-Thunderstorm,158
2010-10-23,68,61,53,58,55,52,100,82,63,29.77,29.66,29.60,10,6,0,13,4,15,0.67,8,Fog-Rain-Thunderstorm,133
2010-10-24,60,53,46,54,50,46,93,80,67,29.70,29.62,29.50,10,9,1,22,9,26,0.18,6,Rain-Thunderstorm,316
2010-10-25,57,51,45,54,47,39,96,84,72,29.46,29.20,29.10,10,8,3,30,11,40,0.48,6,Rain,294
2010-10-26,59,51,42,39,31,25,76,52,28,29.52,29.35,29.22,10,10,10,39,21,47,0.01,4,Rain,284
2010-10-27,47,39,31,29,27,23,69,57,45,30.26,29.85,29.54,10,10,10,37,18,46,T,3,,296
2010-10-28,61,45,29,30,26,22,82,55,28,30.50,30.40,30.29,10,10,10,17,7,22,0.00,0,,308
2010-10-29,67,48,29,33,29,25,85,56,26,30.34,30.08,29.88,10,10,10,17,8,24,0.00,0,,197
2010-10-30,66,50,34,36,33,30,89,60,31,30.09,29.97,29.87,10,10,10,14,5,17,0.00,0,,7
2010-10-31,51,45,39,36,34,29,85,64,42,30.24,30.14,30.04,10,10,10,13,5,16,0.00,4,,103